createdAt,value
2022-08-09T00:00:20.925Z,20.43
2022-08-09T00:01:20.967Z,20.43
2022-08-09T00:02:20.778Z,20.41
2022-08-09T00:04:05.506Z,20.36
2022-08-09T00:04:34.863Z,20.29
2022-08-09T00:06:17.933Z,20.28
2022-08-09T00:06:22.561Z,20.24
2022-08-09T00:07:20.406Z,20.07
2022-08-09T00:08:31.980Z,20.13
2022-08-09T00:09:21.042Z,20.18
2022-08-09T00:10:21.339Z,20.22
2022-08-09T00:11:24.843Z,20.14
2022-08-09T00:12:22.639Z,20.13
2022-08-09T00:13:19.958Z,20.03
2022-08-09T00:14:22.080Z,20.03
2022-08-09T00:15:19.815Z,20.02
2022-08-09T00:16:26.150Z,19.94
2022-08-09T00:18:04.539Z,20.00
2022-08-09T00:18:19.584Z,20.03
2022-08-09T00:19:19.512Z,20.00
2022-08-09T00:20:19.438Z,19.94
2022-08-09T00:21:19.363Z,19.99
2022-08-09T00:22:19.294Z,19.95
2022-08-09T00:23:57.030Z,20.00
2022-08-09T00:24:19.867Z,19.94
2022-08-09T00:25:23.066Z,19.92
2022-08-09T00:26:18.986Z,19.88
2022-08-09T00:27:18.923Z,19.92
2022-08-09T00:28:18.844Z,19.96
2022-08-09T00:30:09.776Z,19.92
2022-08-09T00:30:25.691Z,19.95
2022-08-09T00:31:55.782Z,19.88
2022-08-09T00:32:25.376Z,19.96
2022-08-09T00:33:18.463Z,19.92
2022-08-09T00:34:19.159Z,19.99
2022-08-09T00:35:18.320Z,19.91
2022-08-09T00:36:18.246Z,19.94
2022-08-09T00:37:18.164Z,19.86
2022-08-09T00:38:21.383Z,19.86
2022-08-09T00:40:12.188Z,19.84
2022-08-09T00:40:19.870Z,19.84
2022-08-09T00:44:08.006Z,19.73
2022-08-09T00:44:16.133Z,19.67
2022-08-09T00:44:16.911Z,19.64
2022-08-09T00:44:25.735Z,19.56
2022-08-09T00:45:17.568Z,19.58
2022-08-09T00:46:55.965Z,19.47
2022-08-09T00:47:17.417Z,19.45
2022-08-09T00:48:19.459Z,19.33
2022-08-09T00:49:17.267Z,19.29
2022-08-09T00:50:17.198Z,19.26
2022-08-09T00:51:17.120Z,19.24
2022-08-09T00:52:17.731Z,19.15
2022-08-09T00:53:16.969Z,19.02
2022-08-09T00:54:16.891Z,18.99
2022-08-09T00:56:03.326Z,19.02
2022-08-09T00:56:16.742Z,18.99
2022-08-09T00:57:24.666Z,18.93
2022-08-09T00:58:25.472Z,18.93
2022-08-09T00:59:40.302Z,18.96
2022-08-09T01:00:21.609Z,18.84
2022-08-09T01:01:16.492Z,18.90
2022-08-09T01:02:16.294Z,18.88
2022-08-09T01:03:16.219Z,18.83
2022-08-09T01:04:16.145Z,18.86
2022-08-09T01:05:21.747Z,18.92
2022-08-09T01:06:18.411Z,18.93
2022-08-09T01:07:15.922Z,18.77
2022-08-09T01:08:16.276Z,18.84
2022-08-09T01:09:15.768Z,18.84
2022-08-09T01:10:15.702Z,18.81
2022-08-09T01:11:15.621Z,18.80
2022-08-09T01:12:15.590Z,18.83
2022-08-09T01:13:16.911Z,18.83
2022-08-09T01:14:15.397Z,18.70
2022-08-09T01:15:17.659Z,18.68
2022-08-09T01:16:15.244Z,18.65
2022-08-09T01:17:16.077Z,18.60
2022-08-09T01:18:15.090Z,18.52
2022-08-09T01:19:17.177Z,18.53
2022-08-09T01:20:14.943Z,18.52
2022-08-09T01:21:14.871Z,18.40
2022-08-09T01:22:16.638Z,18.40
2022-08-09T01:24:00.890Z,18.37
2022-08-09T01:24:14.649Z,18.37
2022-08-09T01:25:14.569Z,18.41
2022-08-09T01:26:14.491Z,18.40
2022-08-09T01:27:14.412Z,18.34
2022-08-09T01:28:14.342Z,18.29
2022-08-09T01:29:15.462Z,18.33
2022-08-09T01:30:35.458Z,18.40
2022-08-09T01:31:40.890Z,18.41
2022-08-09T01:32:29.189Z,18.40
2022-08-09T01:33:13.960Z,18.33
2022-08-09T01:34:13.902Z,18.28
2022-08-09T01:35:28.434Z,18.25
2022-08-09T01:36:13.735Z,18.31
2022-08-09T01:37:13.662Z,18.31
2022-08-09T01:38:15.471Z,18.40
2022-08-09T01:39:13.543Z,18.34
2022-08-09T01:40:13.435Z,18.44
2022-08-09T01:41:13.368Z,18.35
2022-08-09T01:42:13.284Z,18.40
2022-08-09T01:43:13.211Z,18.45
2022-08-09T01:44:13.132Z,18.34
2022-08-09T01:45:13.059Z,18.38
2022-08-09T01:46:24.027Z,18.41
2022-08-09T01:47:12.907Z,18.41
2022-08-09T01:48:12.831Z,18.38
2022-08-09T01:49:14.845Z,18.35
2022-08-09T01:50:12.687Z,18.34
2022-08-09T01:51:12.599Z,18.34
2022-08-09T01:52:12.524Z,18.31
2022-08-09T01:53:20.020Z,18.23
2022-08-09T01:54:12.372Z,18.29
2022-08-09T01:55:12.296Z,18.10
2022-08-09T01:56:12.228Z,18.15
2022-08-09T01:57:12.150Z,18.18
2022-08-09T01:58:12.070Z,18.07
2022-08-09T01:59:16.089Z,18.05
2022-08-09T02:00:34.570Z,18.04
2022-08-09T02:01:11.931Z,18.08
2022-08-09T02:02:11.820Z,18.04
2022-08-09T02:03:13.843Z,18.13
2022-08-09T02:04:11.613Z,18.08
2022-08-09T02:05:15.541Z,18.01
2022-08-09T02:06:11.468Z,18.08
2022-08-09T02:07:15.593Z,18.00
2022-08-09T02:08:39.642Z,18.07
2022-08-09T02:09:11.245Z,18.04
2022-08-09T02:11:43.887Z,18.20
2022-08-09T02:12:42.613Z,18.10
2022-08-09T02:14:46.446Z,18.15
2022-08-09T02:15:49.220Z,18.13
2022-08-09T02:18:09.412Z,18.13
2022-08-09T02:18:50.123Z,18.11
2022-08-09T02:20:53.948Z,18.00
2022-08-09T02:21:55.205Z,18.04
2022-08-09T02:23:57.708Z,18.05
2022-08-09T02:24:57.610Z,18.07
2022-08-09T02:27:01.456Z,18.11
2022-08-09T02:28:04.063Z,17.95
2022-08-09T02:30:05.189Z,17.92
2022-08-09T02:31:05.824Z,17.92
2022-08-09T02:33:14.198Z,17.95
2022-08-09T02:34:13.179Z,17.95
2022-08-09T02:36:12.675Z,17.95
2022-08-09T02:37:12.589Z,17.90
2022-08-09T02:39:33.593Z,17.82
2022-08-09T02:40:18.523Z,17.80
2022-08-09T02:42:20.176Z,17.82
2022-08-09T02:43:20.086Z,17.79
2022-08-09T02:45:26.650Z,17.74
2022-08-09T02:46:23.836Z,17.80
2022-08-09T02:48:31.131Z,17.57
2022-08-09T02:49:27.592Z,17.54
2022-08-09T02:51:20.356Z,17.60
2022-08-09T02:52:20.260Z,17.45
2022-08-09T02:54:24.089Z,17.41
2022-08-09T02:55:24.009Z,17.41
2022-08-09T02:57:27.856Z,17.41
2022-08-09T02:58:36.082Z,17.33
2022-08-09T03:00:31.645Z,17.34
2022-08-09T03:01:43.341Z,17.42
2022-08-09T03:03:37.174Z,17.45
2022-08-09T03:04:35.247Z,17.39
2022-08-09T03:06:39.063Z,17.39
2022-08-09T03:07:38.980Z,17.39
2022-08-09T03:09:43.276Z,17.39
2022-08-09T03:10:43.846Z,17.42
2022-08-09T03:12:49.467Z,17.41
2022-08-09T03:13:59.618Z,17.33
2022-08-09T03:16:06.037Z,17.38
2022-08-09T03:16:50.225Z,17.38
2022-08-09T03:18:55.698Z,17.42
2022-08-09T03:20:02.742Z,17.42
2022-08-09T03:21:48.561Z,17.42
2022-08-09T03:22:46.889Z,17.41
2022-08-09T03:24:52.485Z,17.33
2022-08-09T03:25:56.979Z,17.33
2022-08-09T03:27:55.193Z,17.27
2022-08-09T03:28:55.086Z,17.26
2022-08-09T03:30:58.000Z,17.06
2022-08-09T03:32:00.474Z,17.08
2022-08-09T03:34:01.734Z,17.08
2022-08-09T03:35:01.652Z,17.04
2022-08-09T03:37:56.662Z,16.97
2022-08-09T03:38:05.398Z,17.01
2022-08-09T03:40:09.463Z,16.97
2022-08-09T03:41:09.146Z,17.02
2022-08-09T03:43:12.976Z,16.84
2022-08-09T03:44:12.898Z,16.83
2022-08-09T03:46:20.132Z,16.87
2022-08-09T03:47:16.640Z,16.87
2022-08-09T03:49:21.267Z,16.97
2022-08-09T03:50:27.871Z,16.99
2022-08-09T03:52:24.233Z,17.08
2022-08-09T03:53:24.130Z,16.96
2022-08-09T03:55:30.110Z,17.01
2022-08-09T03:56:27.893Z,16.93
2022-08-09T03:57:27.817Z,16.93
2022-08-09T03:58:27.741Z,16.97
2022-08-09T03:59:42.813Z,16.97
2022-08-09T04:00:27.639Z,16.94
2022-08-09T04:01:27.509Z,17.01
2022-08-09T04:02:30.314Z,16.93
2022-08-09T04:03:45.859Z,17.04
2022-08-09T04:04:27.284Z,17.01
2022-08-09T04:05:27.772Z,16.97
2022-08-09T04:06:27.132Z,16.97
2022-08-09T04:07:53.436Z,16.99
2022-08-09T04:09:47.655Z,17.02
2022-08-09T04:10:30.822Z,17.09
2022-08-09T04:12:35.140Z,17.09
2022-08-09T04:14:36.779Z,17.11
2022-08-09T04:16:17.824Z,17.06
2022-08-09T04:16:38.813Z,17.09
2022-08-09T04:18:32.079Z,17.11
2022-08-09T04:19:50.764Z,17.11
2022-08-09T04:21:40.106Z,17.06
2022-08-09T04:22:35.761Z,17.05
2022-08-09T04:24:39.611Z,17.09
2022-08-09T04:25:39.516Z,17.11
2022-08-09T04:27:49.159Z,17.16
2022-08-09T04:28:46.934Z,17.14
2022-08-09T04:30:47.618Z,17.15
2022-08-09T04:31:47.779Z,17.16
2022-08-09T04:33:56.543Z,17.12
2022-08-09T04:34:54.254Z,17.14
2022-08-09T04:36:55.631Z,17.19
2022-08-09T04:37:55.545Z,17.16
2022-08-09T04:39:59.394Z,17.19
2022-08-09T04:40:59.302Z,17.20
2022-08-09T04:43:03.570Z,17.23
2022-08-09T04:44:06.665Z,17.22
2022-08-09T04:46:06.935Z,17.38
2022-08-09T04:47:06.842Z,17.33
2022-08-09T04:48:59.656Z,17.33
2022-08-09T04:49:59.548Z,17.41
2022-08-09T04:52:03.376Z,17.42
2022-08-09T04:53:03.301Z,17.42
2022-08-09T04:54:03.226Z,17.39
2022-08-09T04:55:04.678Z,17.41
2022-08-09T04:56:03.071Z,17.60
2022-08-09T04:57:03.912Z,17.52
2022-08-09T04:58:09.707Z,17.57
2022-08-09T04:59:07.702Z,17.46
2022-08-09T05:00:02.843Z,17.54
2022-08-09T05:01:02.688Z,17.52
2022-08-09T05:02:03.004Z,17.56
2022-08-09T05:03:12.750Z,17.67
2022-08-09T05:04:02.970Z,17.63
2022-08-09T05:05:10.288Z,17.64
2022-08-09T05:07:06.238Z,17.80
2022-08-09T05:08:06.132Z,17.71
2022-08-09T05:09:06.055Z,17.78
2022-08-09T05:10:05.982Z,17.76
2022-08-09T05:11:07.564Z,17.76
2022-08-09T05:12:05.834Z,17.86
2022-08-09T05:13:05.752Z,17.83
2022-08-09T05:14:06.695Z,17.85
2022-08-09T05:15:11.525Z,17.87
2022-08-09T05:16:05.518Z,17.86
2022-08-09T05:17:05.450Z,17.92
2022-08-09T05:18:55.366Z,17.98
2022-08-09T05:19:05.297Z,17.97
2022-08-09T05:20:05.219Z,18.07
2022-08-09T05:21:10.031Z,18.05
2022-08-09T05:22:05.068Z,18.00
2022-08-09T05:23:54.541Z,18.05
2022-08-09T05:24:05.231Z,18.04
2022-08-09T05:25:04.834Z,18.05
2022-08-09T05:26:04.761Z,18.07
2022-08-09T05:27:04.679Z,18.08
2022-08-09T05:28:04.609Z,18.15
2022-08-09T05:29:04.540Z,18.22
2022-08-09T05:30:04.454Z,18.15
2022-08-09T05:31:09.395Z,18.22
2022-08-09T05:32:05.783Z,18.25
2022-08-09T05:33:04.228Z,18.35
2022-08-09T05:34:04.148Z,18.35
2022-08-09T05:35:04.075Z,18.28
2022-08-09T05:36:03.993Z,18.38
2022-08-09T05:37:04.908Z,18.40
2022-08-09T05:38:03.838Z,18.34
2022-08-09T05:39:03.817Z,18.44
2022-08-09T05:40:03.696Z,18.41
2022-08-09T05:41:03.616Z,18.50
2022-08-09T05:42:04.690Z,18.41
2022-08-09T05:43:03.462Z,18.53
2022-08-09T05:44:03.393Z,18.45
2022-08-09T05:45:03.322Z,18.58
2022-08-09T05:46:03.229Z,18.58
2022-08-09T05:47:05.464Z,18.59
2022-08-09T05:48:03.086Z,18.68
2022-08-09T05:49:03.004Z,18.66
2022-08-09T05:50:23.375Z,18.66
2022-08-09T05:51:42.547Z,18.66
2022-08-09T05:52:02.809Z,18.78
2022-08-09T05:53:02.712Z,18.84
2022-08-09T05:54:02.629Z,18.75
2022-08-09T05:55:03.265Z,18.81
2022-08-09T05:56:02.476Z,18.81
2022-08-09T05:57:02.396Z,18.92
2022-08-09T05:58:02.322Z,18.80
2022-08-09T05:59:02.248Z,18.88
2022-08-09T06:00:02.264Z,18.84
2022-08-09T06:01:02.093Z,18.89
2022-08-09T06:02:02.122Z,18.88
2022-08-09T06:03:02.008Z,18.95
2022-08-09T06:04:01.913Z,18.93
2022-08-09T06:05:01.795Z,19.00
2022-08-09T06:06:05.951Z,19.07
2022-08-09T06:07:01.651Z,19.11
2022-08-09T06:08:05.317Z,19.08
2022-08-09T06:09:01.492Z,19.12
2022-08-09T06:10:02.970Z,19.18
2022-08-09T06:11:01.337Z,19.16
2022-08-09T06:12:01.259Z,19.16
2022-08-09T06:13:03.114Z,19.27
2022-08-09T06:14:01.110Z,19.24
2022-08-09T06:15:02.249Z,19.34
2022-08-09T06:16:01.538Z,19.33
2022-08-09T06:17:00.882Z,19.30
2022-08-09T06:18:00.814Z,19.34
2022-08-09T06:19:00.728Z,19.45
2022-08-09T06:20:00.658Z,19.45
2022-08-09T06:21:00.576Z,19.54
2022-08-09T06:22:00.500Z,19.52
2022-08-09T06:23:00.428Z,19.55
2022-08-09T06:24:02.258Z,19.58
2022-08-09T06:25:00.278Z,19.49
2022-08-09T06:26:00.202Z,19.56
2022-08-09T06:27:00.123Z,19.59
2022-08-09T06:28:00.050Z,19.56
2022-08-09T06:29:04.748Z,19.66
2022-08-09T06:30:08.884Z,19.64
2022-08-09T06:30:59.819Z,19.66
2022-08-09T06:32:08.600Z,19.79
2022-08-09T06:33:30.452Z,19.79
2022-08-09T06:33:59.595Z,19.81
2022-08-09T06:34:59.520Z,19.84
2022-08-09T06:35:59.443Z,19.86
2022-08-09T06:37:00.119Z,19.92
2022-08-09T06:38:05.740Z,19.95
2022-08-09T06:38:59.214Z,19.96
2022-08-09T06:40:00.153Z,20.06
2022-08-09T06:40:59.070Z,20.02
2022-08-09T06:42:09.381Z,20.07
2022-08-09T06:42:58.916Z,20.13
2022-08-09T06:43:58.844Z,20.13
2022-08-09T06:44:58.768Z,20.13
2022-08-09T06:46:06.556Z,20.18
2022-08-09T06:46:58.615Z,20.24
2022-08-09T06:48:01.493Z,20.24
2022-08-09T06:49:00.166Z,20.31
2022-08-09T06:50:14.782Z,20.22
2022-08-09T06:50:58.321Z,20.28
2022-08-09T06:51:58.237Z,20.39
2022-08-09T06:52:58.167Z,20.34
2022-08-09T06:54:00.958Z,20.43
2022-08-09T06:54:58.013Z,20.44
2022-08-09T06:55:57.935Z,20.51
2022-08-09T06:56:57.860Z,20.55
2022-08-09T06:58:03.326Z,20.56
2022-08-09T07:00:49.910Z,20.67
2022-08-09T07:00:51.876Z,20.69
2022-08-09T07:00:59.685Z,20.75
2022-08-09T07:01:59.490Z,20.77
2022-08-09T07:02:57.412Z,20.75
2022-08-09T07:04:00.693Z,20.81
2022-08-09T07:04:57.256Z,20.84
2022-08-09T07:06:03.978Z,20.90
2022-08-09T07:07:00.328Z,20.96
2022-08-09T07:08:00.449Z,20.82
2022-08-09T07:08:56.961Z,20.96
2022-08-09T07:10:12.661Z,21.02
2022-08-09T07:10:56.808Z,21.11
2022-08-09T07:11:56.737Z,21.06
2022-08-09T07:12:57.122Z,21.14
2022-08-09T07:14:05.121Z,21.14
2022-08-09T07:14:56.512Z,21.09
2022-08-09T07:16:43.361Z,21.29
2022-08-09T07:16:58.287Z,21.24
2022-08-09T07:18:02.459Z,21.35
2022-08-09T07:18:56.210Z,21.37
2022-08-09T07:19:56.135Z,21.32
2022-08-09T07:20:56.062Z,21.52
2022-08-09T07:21:57.749Z,21.50
2022-08-09T07:22:56.288Z,21.51
2022-08-09T07:23:57.861Z,21.45
2022-08-09T07:24:55.762Z,21.54
2022-08-09T07:26:02.357Z,21.62
2022-08-09T07:26:55.619Z,21.64
2022-08-09T07:27:55.744Z,21.61
2022-08-09T07:29:08.558Z,21.64
2022-08-09T07:29:56.981Z,21.69
2022-08-09T07:30:55.350Z,21.72
2022-08-09T07:31:55.240Z,21.73
2022-08-09T07:32:55.162Z,21.76
2022-08-09T07:33:55.850Z,21.85
2022-08-09T07:34:55.023Z,21.83
2022-08-09T07:35:54.943Z,21.80
2022-08-09T07:36:54.874Z,21.92
2022-08-09T07:37:59.604Z,22.04
2022-08-09T07:39:00.444Z,22.02
2022-08-09T07:39:54.726Z,22.08
2022-08-09T07:41:11.677Z,22.14
2022-08-09T07:41:54.497Z,22.13
2022-08-09T07:42:54.899Z,22.17
2022-08-09T07:43:56.433Z,22.18
2022-08-09T07:44:57.296Z,22.23
2022-08-09T07:45:54.194Z,22.29
2022-08-09T07:46:54.119Z,22.38
2022-08-09T07:48:01.530Z,22.38
2022-08-09T07:48:59.401Z,22.35
2022-08-09T07:50:07.950Z,22.44
2022-08-09T07:51:09.061Z,22.50
2022-08-09T07:52:04.384Z,22.51
2022-08-09T07:52:53.673Z,22.50
2022-08-09T07:54:05.593Z,22.55
2022-08-09T07:54:53.554Z,22.55
2022-08-09T07:56:03.525Z,22.63
2022-08-09T07:56:53.376Z,22.59
2022-08-09T07:57:53.305Z,22.70
2022-08-09T07:58:53.237Z,22.72
2022-08-09T08:00:02.698Z,22.73
2022-08-09T08:00:58.640Z,22.76
2022-08-09T08:01:53.574Z,22.80
2022-08-09T08:02:52.940Z,22.83
2022-08-09T08:03:52.877Z,22.84
2022-08-09T08:04:53.874Z,22.85
2022-08-09T08:05:58.014Z,22.91
2022-08-09T08:06:55.734Z,22.94
2022-08-09T08:08:44.195Z,22.99
2022-08-09T08:09:01.507Z,22.99
2022-08-09T08:10:04.617Z,22.99
2022-08-09T08:12:07.735Z,23.10
2022-08-09T08:12:24.034Z,23.08
2022-08-09T08:12:52.193Z,23.09
2022-08-09T08:13:56.307Z,23.18
2022-08-09T08:14:52.056Z,23.12
2022-08-09T08:15:51.972Z,23.20
2022-08-09T08:17:00.644Z,23.24
2022-08-09T08:17:52.876Z,23.34
2022-08-09T08:18:51.757Z,23.41
2022-08-09T08:19:51.679Z,23.36
2022-08-09T08:20:51.605Z,23.31
2022-08-09T08:21:52.915Z,23.41
2022-08-09T08:22:51.456Z,23.48
2022-08-09T08:23:55.930Z,23.47
2022-08-09T08:24:51.309Z,23.51
2022-08-09T08:26:06.607Z,23.54
2022-08-09T08:26:56.036Z,23.55
2022-08-09T08:27:51.090Z,23.61
2022-08-09T08:28:51.017Z,23.65
2022-08-09T08:29:52.330Z,23.68
2022-08-09T08:30:50.865Z,23.73
2022-08-09T08:32:03.816Z,23.86
2022-08-09T08:32:52.547Z,23.87
2022-08-09T08:33:53.521Z,23.83
2022-08-09T08:34:51.951Z,23.83
2022-08-09T08:35:59.734Z,23.84
2022-08-09T08:36:50.423Z,23.88
2022-08-09T08:37:59.499Z,23.93
2022-08-09T08:38:50.285Z,23.92
2022-08-09T08:39:50.252Z,24.03
2022-08-09T08:40:50.136Z,24.01
2022-08-09T08:41:51.740Z,24.01
2022-08-09T08:42:49.984Z,24.02
2022-08-09T08:43:49.913Z,24.03
2022-08-09T08:44:49.838Z,24.11
2022-08-09T08:45:53.208Z,24.17
2022-08-09T08:47:02.406Z,24.13
2022-08-09T08:47:49.622Z,24.13
2022-08-09T08:48:51.085Z,24.14
2022-08-09T08:49:49.589Z,24.08
2022-08-09T08:50:51.992Z,24.06
2022-08-09T08:52:01.930Z,24.10
2022-08-09T08:52:57.550Z,24.17
2022-08-09T08:54:03.379Z,24.11
2022-08-09T08:54:49.110Z,24.20
2022-08-09T08:55:49.033Z,24.18
2022-08-09T08:56:48.958Z,24.18
2022-08-09T08:57:57.453Z,24.24
2022-08-09T08:58:48.809Z,24.26
2022-08-09T08:59:49.125Z,24.28
2022-08-09T09:00:54.262Z,24.33
2022-08-09T09:01:52.648Z,24.33
2022-08-09T09:02:52.259Z,24.38
2022-08-09T09:03:50.403Z,24.35
2022-08-09T09:04:53.172Z,24.29
2022-08-09T09:06:03.072Z,24.36
2022-08-09T09:06:48.227Z,24.39
2022-08-09T09:07:48.156Z,24.51
2022-08-09T09:08:52.624Z,24.48
2022-08-09T09:10:02.377Z,24.53
2022-08-09T09:10:47.938Z,24.65
2022-08-09T09:11:47.859Z,24.61
2022-08-09T09:12:47.791Z,24.54
2022-08-09T09:13:56.348Z,24.63
2022-08-09T09:14:47.641Z,24.58
2022-08-09T09:15:49.078Z,24.65
2022-08-09T09:16:47.494Z,24.65
2022-08-09T09:17:49.528Z,24.57
2022-08-09T09:18:54.858Z,24.60
2022-08-09T09:19:47.278Z,24.65
2022-08-09T09:20:47.211Z,24.69
2022-08-09T09:21:47.130Z,24.73
2022-08-09T09:22:47.062Z,24.80
2022-08-09T09:23:49.930Z,24.77
2022-08-09T09:24:46.910Z,24.80
2022-08-09T09:26:03.746Z,24.69
2022-08-09T09:26:46.768Z,24.84
2022-08-09T09:28:06.087Z,24.80
2022-08-09T09:29:03.313Z,24.74
2022-08-09T09:30:14.129Z,24.89
2022-08-09T09:30:47.352Z,24.86
2022-08-09T09:32:04.421Z,24.93
2022-08-09T09:32:46.329Z,24.95
2022-08-09T09:33:46.257Z,24.93
2022-08-09T09:34:46.182Z,25.04
2022-08-09T09:35:48.031Z,24.95
2022-08-09T09:36:53.155Z,24.96
2022-08-09T09:37:45.967Z,25.07
2022-08-09T09:38:45.891Z,24.96
2022-08-09T09:39:54.736Z,24.98
2022-08-09T09:40:46.353Z,25.06
2022-08-09T09:41:49.119Z,24.98
2022-08-09T09:42:46.229Z,25.07
2022-08-09T09:44:12.463Z,25.11
2022-08-09T09:44:45.454Z,25.03
2022-08-09T09:46:41.737Z,25.08
2022-08-09T09:46:50.675Z,25.04
2022-08-09T09:47:56.355Z,25.07
2022-08-09T09:48:45.167Z,25.07
2022-08-09T09:50:07.167Z,25.07
2022-08-09T09:50:49.568Z,25.07
2022-08-09T09:51:47.919Z,25.07
2022-08-09T09:52:53.608Z,25.08
2022-08-09T09:54:00.821Z,25.10
2022-08-09T09:54:48.740Z,25.22
2022-08-09T09:55:44.655Z,25.23
2022-08-09T09:58:00.499Z,25.26
2022-08-09T09:58:04.268Z,25.31
2022-08-09T09:58:44.434Z,25.25
2022-08-09T09:59:44.363Z,25.31
2022-08-09T10:00:44.287Z,25.38
2022-08-09T10:01:44.215Z,25.40
2022-08-09T10:02:44.151Z,25.41
2022-08-09T10:03:44.860Z,25.35
2022-08-09T10:04:44.000Z,25.38
2022-08-09T10:06:03.647Z,25.46
2022-08-09T10:06:47.224Z,25.35
2022-08-09T10:08:11.046Z,25.35
2022-08-09T10:08:55.144Z,25.36
2022-08-09T10:09:45.925Z,25.46
2022-08-09T10:10:43.563Z,25.43
2022-08-09T10:11:59.948Z,25.46
2022-08-09T10:12:43.557Z,25.53
2022-08-09T10:13:45.468Z,25.50
2022-08-09T10:14:48.286Z,25.55
2022-08-09T10:16:09.660Z,25.62
2022-08-09T10:16:56.998Z,25.59
2022-08-09T10:17:55.709Z,25.62
2022-08-09T10:18:42.984Z,25.63
2022-08-09T10:19:42.911Z,25.63
2022-08-09T10:20:44.830Z,25.69
2022-08-09T10:21:42.763Z,25.66
2022-08-09T10:22:42.941Z,25.70
2022-08-09T10:23:42.620Z,25.77
2022-08-09T10:24:42.548Z,25.69
2022-08-09T10:26:07.754Z,25.66
2022-08-09T10:26:42.401Z,25.70
2022-08-09T10:27:45.501Z,25.73
2022-08-09T10:28:44.109Z,25.90
2022-08-09T10:30:41.953Z,25.85
2022-08-09T10:32:21.038Z,25.85
2022-08-09T10:32:42.574Z,25.93
2022-08-09T10:34:08.173Z,25.93
2022-08-09T10:34:41.835Z,25.96
2022-08-09T10:35:41.754Z,25.96
2022-08-09T10:36:42.104Z,25.98
2022-08-09T10:37:42.097Z,25.96
2022-08-09T10:38:57.110Z,26.13
2022-08-09T10:39:49.126Z,26.21
2022-08-09T10:40:41.407Z,26.10
2022-08-09T10:41:42.179Z,26.16
2022-08-09T10:42:41.244Z,26.21
2022-08-09T10:43:53.872Z,26.26
2022-08-09T10:44:41.100Z,26.28
2022-08-09T10:45:49.324Z,26.28
2022-08-09T10:46:54.503Z,26.25
2022-08-09T10:48:16.387Z,26.31
2022-08-09T10:48:40.810Z,26.26
2022-08-09T10:49:50.150Z,26.34
2022-08-09T10:50:40.668Z,26.43
2022-08-09T10:51:41.297Z,26.45
2022-08-09T10:52:42.987Z,26.58
2022-08-09T10:53:46.914Z,26.60
2022-08-09T10:54:40.379Z,26.62
2022-08-09T10:55:58.795Z,26.71
2022-08-09T10:56:40.235Z,26.68
2022-08-09T10:57:41.840Z,26.73
2022-08-09T10:58:40.094Z,26.83
2022-08-09T10:59:53.743Z,26.84
2022-08-09T11:00:41.807Z,26.81
2022-08-09T11:03:15.622Z,26.90
2022-08-09T11:03:15.934Z,26.90
2022-08-09T11:03:49.627Z,26.92
2022-08-09T11:04:55.576Z,26.99
2022-08-09T11:05:39.629Z,26.97
2022-08-09T11:06:46.735Z,27.03
2022-08-09T11:08:47.614Z,27.14
2022-08-09T11:09:47.760Z,27.20
2022-08-09T11:11:51.876Z,27.30
2022-08-09T11:12:47.149Z,27.22
2022-08-09T11:14:50.985Z,27.29
2022-08-09T11:16:06.429Z,27.30
2022-08-09T11:17:43.700Z,27.37
2022-08-09T11:18:45.048Z,27.39
2022-08-09T11:20:18.000Z,27.39
2022-08-09T11:20:43.466Z,27.36
2022-08-09T11:21:43.392Z,27.33
2022-08-09T11:22:43.322Z,27.35
2022-08-09T11:23:45.275Z,27.44
2022-08-09T11:24:43.179Z,27.40
2022-08-09T11:25:46.226Z,27.54
2022-08-09T11:26:47.254Z,27.51
2022-08-09T11:28:02.963Z,27.60
2022-08-09T11:28:56.073Z,27.60
2022-08-09T11:30:04.200Z,27.59
2022-08-09T11:30:45.916Z,27.58
2022-08-09T11:31:43.480Z,27.67
2022-08-09T11:32:42.604Z,27.64
2022-08-09T11:33:42.538Z,27.68
2022-08-09T11:34:42.853Z,27.78
2022-08-09T11:35:49.226Z,27.85
2022-08-09T11:36:42.320Z,27.74
2022-08-09T11:37:43.254Z,27.87
2022-08-09T11:38:42.186Z,27.87
2022-08-09T11:39:42.151Z,27.87
2022-08-09T11:40:42.038Z,27.92
2022-08-09T11:41:41.966Z,27.92
2022-08-09T11:42:41.897Z,27.95
2022-08-09T11:43:41.825Z,27.90
2022-08-09T11:44:41.752Z,28.02
2022-08-09T11:45:43.083Z,28.11
2022-08-09T11:46:41.615Z,28.10
2022-08-09T11:47:41.539Z,28.23
2022-08-09T11:48:41.471Z,28.26
2022-08-09T11:49:42.862Z,28.25
2022-08-09T11:50:53.186Z,28.20
2022-08-09T11:53:00.641Z,28.37
2022-08-09T11:53:02.906Z,28.29
2022-08-09T11:54:01.435Z,28.37
2022-08-09T11:54:41.045Z,28.41
2022-08-09T11:55:52.243Z,28.38
2022-08-09T11:56:47.517Z,28.47
2022-08-09T11:57:56.831Z,28.48
2022-08-09T11:58:40.761Z,28.49
2022-08-09T11:59:40.692Z,28.54
2022-08-09T12:00:40.617Z,28.64
2022-08-09T12:02:18.010Z,28.52
2022-08-09T12:02:40.808Z,28.57
2022-08-09T12:03:55.182Z,28.72
2022-08-09T12:04:40.390Z,28.82
2022-08-09T12:05:42.272Z,28.76
2022-08-09T12:06:40.194Z,28.85
2022-08-09T12:07:42.336Z,28.98
2022-08-09T12:08:40.057Z,29.05
2022-08-09T12:09:39.981Z,29.13
2022-08-09T12:10:40.253Z,29.16
2022-08-09T12:12:02.047Z,29.27
2022-08-09T12:12:39.932Z,29.31
2022-08-09T12:14:10.791Z,29.23
2022-08-09T12:14:58.966Z,29.32
2022-08-09T12:15:50.067Z,29.36
2022-08-09T12:16:40.035Z,29.42
2022-08-09T12:17:44.477Z,29.44
2022-08-09T12:18:39.353Z,29.41
2022-08-09T12:19:40.077Z,29.50
2022-08-09T12:20:39.215Z,29.59
2022-08-09T12:21:48.270Z,29.68
2022-08-09T12:22:39.075Z,29.79
2022-08-09T12:23:58.141Z,29.90
2022-08-09T12:24:39.040Z,30.02
2022-08-09T12:25:38.863Z,30.00
2022-08-09T12:26:38.794Z,30.05
2022-08-09T12:28:59.794Z,30.16
2022-08-09T12:29:13.079Z,30.09
2022-08-09T12:29:44.570Z,30.23
2022-08-09T12:30:39.421Z,30.31
2022-08-09T12:32:01.818Z,30.47
2022-08-09T12:32:40.658Z,30.54
2022-08-09T12:33:59.183Z,30.61
2022-08-09T12:34:38.232Z,30.53
2022-08-09T12:35:40.912Z,30.77
2022-08-09T12:36:38.092Z,31.03
2022-08-09T12:37:50.164Z,31.05
2022-08-09T12:38:38.775Z,31.34
2022-08-09T12:39:38.113Z,31.39
2022-08-09T12:40:37.824Z,31.52
2022-08-09T12:41:40.209Z,31.65
2022-08-09T12:42:37.680Z,31.94
2022-08-09T12:44:05.674Z,32.16
2022-08-09T12:44:37.630Z,32.36
2022-08-09T12:45:38.478Z,32.70
2022-08-09T12:46:37.402Z,33.17
2022-08-09T12:47:43.547Z,33.73
2022-08-09T12:48:38.507Z,34.25
2022-08-09T12:49:37.197Z,34.90
2022-08-09T12:50:37.263Z,35.61
2022-08-09T12:52:00.582Z,36.24
2022-08-09T12:52:42.647Z,36.86
2022-08-09T12:53:38.694Z,36.91
2022-08-09T12:54:36.858Z,37.06
2022-08-09T12:56:14.625Z,37.29
2022-08-09T12:56:43.347Z,37.59
2022-08-09T12:57:39.350Z,37.20
2022-08-09T12:58:42.560Z,36.77
2022-08-09T12:59:57.712Z,36.33
2022-08-09T13:00:36.448Z,36.83
2022-08-09T13:01:38.152Z,37.48
2022-08-09T13:02:36.312Z,38.40
2022-08-09T13:03:56.785Z,39.26
2022-08-09T13:04:38.622Z,40.11
2022-08-09T13:05:52.460Z,41.07
2022-08-09T13:06:36.058Z,41.77
2022-08-09T13:07:51.413Z,42.35
2022-08-09T13:08:39.978Z,42.89
2022-08-09T13:09:38.309Z,43.20
2022-08-09T13:10:35.797Z,43.46
2022-08-09T13:11:39.359Z,43.64
2022-08-09T13:12:40.072Z,42.36
2022-08-09T13:14:11.914Z,41.59
2022-08-09T13:14:43.785Z,41.14
2022-08-09T13:15:35.482Z,40.31
2022-08-09T13:16:35.415Z,40.28
2022-08-09T13:18:03.264Z,41.06
2022-08-09T13:18:35.310Z,41.55
2022-08-09T13:20:10.101Z,42.13
2022-08-09T13:20:37.265Z,42.85
2022-08-09T13:22:36.094Z,43.64
2022-08-09T13:23:05.285Z,44.10
2022-08-09T13:24:11.826Z,44.36
2022-08-09T13:24:42.656Z,44.81
2022-08-09T13:25:37.443Z,45.29
2022-08-09T13:26:37.265Z,45.48
2022-08-09T13:27:39.892Z,45.70
2022-08-09T13:28:35.765Z,45.96
2022-08-09T13:30:02.760Z,46.26
2022-08-09T13:30:50.064Z,46.51
2022-08-09T13:32:19.049Z,46.79
2022-08-09T13:32:34.448Z,46.70
2022-08-09T13:33:52.374Z,46.89
2022-08-09T13:34:34.334Z,47.15
2022-08-09T13:36:23.474Z,47.15
2022-08-09T13:36:40.678Z,47.20
2022-08-09T13:37:51.792Z,47.14
2022-08-09T13:38:55.492Z,46.82
2022-08-09T13:41:54.163Z,46.91
2022-08-09T13:41:54.351Z,46.85
2022-08-09T13:41:59.534Z,46.86
2022-08-09T13:42:34.243Z,46.51
2022-08-09T13:43:35.910Z,46.16
2022-08-09T13:44:33.781Z,45.63
2022-08-09T13:46:42.598Z,45.06
2022-08-09T13:47:15.929Z,44.45
2022-08-09T13:47:48.833Z,43.86
2022-08-09T13:48:33.549Z,43.46
2022-08-09T13:49:39.799Z,42.86
2022-08-09T13:50:33.438Z,42.66